createdAt,value
2018-04-18T00:01:07.967Z,13.73
2018-04-18T00:04:10.452Z,13.67
2018-04-18T00:07:13.011Z,13.54
2018-04-18T00:10:15.490Z,13.47
2018-04-18T00:13:18.080Z,13.34
2018-04-18T00:16:20.561Z,13.27
2018-04-18T00:19:23.097Z,13.32
2018-04-18T00:22:25.553Z,13.25
2018-04-18T00:25:28.049Z,13.29
2018-04-18T00:28:30.526Z,13.29
2018-04-18T00:31:33.033Z,13.22
2018-04-18T00:34:35.546Z,13.18
2018-04-18T00:37:38.033Z,13.22
2018-04-18T00:40:40.523Z,13.24
2018-04-18T00:43:43.164Z,13.38
2018-04-18T00:46:45.649Z,13.43
2018-04-18T00:49:48.098Z,13.32
2018-04-18T00:52:50.604Z,13.39
2018-04-18T00:55:53.049Z,13.32
2018-04-18T00:58:55.594Z,13.25
2018-04-18T01:01:58.077Z,13.18
2018-04-18T01:05:00.622Z,13.19
2018-04-18T01:08:03.185Z,13.24
2018-04-18T01:11:05.690Z,13.26
2018-04-18T01:14:08.189Z,13.20
2018-04-18T01:17:10.709Z,13.24
2018-04-18T01:20:13.199Z,13.15
2018-04-18T01:23:15.625Z,13.08
2018-04-18T01:26:18.119Z,13.17
2018-04-18T01:29:20.555Z,13.41
2018-04-18T01:32:23.059Z,13.27
2018-04-18T01:35:25.542Z,13.18
2018-04-18T01:38:28.036Z,13.20
2018-04-18T01:41:30.509Z,13.16
2018-04-18T01:44:32.977Z,13.19
2018-04-18T01:47:35.494Z,13.18
2018-04-18T01:50:37.967Z,13.14
2018-04-18T01:53:40.560Z,13.17
2018-04-18T01:56:43.128Z,13.10
2018-04-18T01:59:45.613Z,13.08
2018-04-18T02:02:48.056Z,13.03
2018-04-18T02:05:50.530Z,13.05
2018-04-18T02:08:52.983Z,13.02
2018-04-18T02:11:55.489Z,13.02
2018-04-18T02:14:57.928Z,13.04
2018-04-18T02:18:00.484Z,13.03
2018-04-18T02:21:02.974Z,13.01
2018-04-18T02:24:05.464Z,12.95
2018-04-18T02:27:08.033Z,13.00
2018-04-18T02:30:10.508Z,13.08
2018-04-18T02:33:13.063Z,13.07
2018-04-18T02:36:15.620Z,13.14
2018-04-18T02:39:18.143Z,13.24
2018-04-18T02:42:20.600Z,13.21
2018-04-18T02:45:23.104Z,13.32
2018-04-18T02:48:25.692Z,13.62
2018-04-18T02:51:28.153Z,13.64
2018-04-18T02:54:30.639Z,13.62
2018-04-18T02:57:33.143Z,13.53
2018-04-18T03:00:35.633Z,13.53
2018-04-18T03:03:38.131Z,13.53
2018-04-18T03:06:40.671Z,13.51
2018-04-18T03:09:43.226Z,13.44
2018-04-18T03:12:45.680Z,13.48
2018-04-18T03:15:48.157Z,13.48
2018-04-18T03:18:50.632Z,13.65
2018-04-18T03:21:53.103Z,13.64
2018-04-18T03:24:55.592Z,13.65
2018-04-18T03:27:58.071Z,13.53
2018-04-18T03:31:00.570Z,13.40
2018-04-18T03:34:03.096Z,13.24
2018-04-18T03:37:05.579Z,13.06
2018-04-18T03:40:08.133Z,12.96
2018-04-18T03:43:10.675Z,12.75
2018-04-18T03:46:13.122Z,12.61
2018-04-18T03:49:15.694Z,12.58
2018-04-18T03:52:18.195Z,12.49
2018-04-18T03:55:20.714Z,12.35
2018-04-18T03:58:23.217Z,12.28
2018-04-18T04:01:25.759Z,12.14
2018-04-18T04:04:28.245Z,12.06
2018-04-18T04:07:31.102Z,12.01
2018-04-18T04:10:33.604Z,11.92
2018-04-18T04:13:36.073Z,11.88
2018-04-18T04:16:50.383Z,11.87
2018-04-18T04:20:04.672Z,11.84
2018-04-18T04:23:18.987Z,11.76
2018-04-18T04:26:21.547Z,11.76
2018-04-18T04:29:24.004Z,11.77
2018-04-18T04:32:26.533Z,11.88
2018-04-18T04:35:29.044Z,12.00
2018-04-18T04:38:32.198Z,12.20
2018-04-18T04:41:34.758Z,12.40
2018-04-18T04:44:37.204Z,12.63
2018-04-18T04:47:39.709Z,13.02
2018-04-18T04:50:42.155Z,13.45
2018-04-18T04:53:44.719Z,13.81
2018-04-18T04:56:47.279Z,14.44
2018-04-18T04:59:49.845Z,14.56
2018-04-18T05:02:52.349Z,15.33
2018-04-18T05:05:54.826Z,16.08
2018-04-18T05:08:57.332Z,16.56
2018-04-18T05:11:59.846Z,16.88
2018-04-18T05:15:02.341Z,17.83
2018-04-18T05:18:04.904Z,18.66
2018-04-18T05:21:07.441Z,19.37
2018-04-18T05:24:09.938Z,19.95
2018-04-18T05:27:12.417Z,20.84
2018-04-18T05:30:14.910Z,20.46
2018-04-18T05:33:17.397Z,21.78
2018-04-18T05:36:19.862Z,22.49
2018-04-18T05:39:22.431Z,22.91
2018-04-18T05:42:24.888Z,22.80
2018-04-18T05:45:27.410Z,23.39
2018-04-18T05:48:29.871Z,22.98
2018-04-18T05:51:32.384Z,23.15
2018-04-18T05:54:34.842Z,22.75
2018-04-18T05:57:37.381Z,22.76
2018-04-18T06:00:39.813Z,23.59
2018-04-18T06:03:42.275Z,24.04
2018-04-18T06:06:44.791Z,25.10
2018-04-18T06:09:47.336Z,25.44
2018-04-18T06:12:49.836Z,25.79
2018-04-18T06:15:52.310Z,26.79
2018-04-18T06:18:54.848Z,27.83
2018-04-18T06:21:57.309Z,28.41
2018-04-18T06:24:59.822Z,28.80
2018-04-18T06:28:02.291Z,29.33
2018-04-18T06:31:04.797Z,28.73
2018-04-18T06:34:07.348Z,27.91
2018-04-18T06:37:09.890Z,28.79
2018-04-18T06:40:12.345Z,28.71
2018-04-18T06:43:14.823Z,28.92
2018-04-18T06:46:17.326Z,27.27
2018-04-18T06:49:19.823Z,25.62
2018-04-18T06:52:22.340Z,23.82
2018-04-18T06:55:24.853Z,22.99
2018-04-18T06:58:27.308Z,22.37
2018-04-18T07:01:29.903Z,21.93
2018-04-18T07:04:32.421Z,21.48
2018-04-18T07:07:34.932Z,21.24
2018-04-18T07:10:37.391Z,21.05
2018-04-18T07:13:39.847Z,21.15
2018-04-18T07:16:42.287Z,21.00
2018-04-18T07:19:44.870Z,21.22
2018-04-18T07:22:47.353Z,21.04
2018-04-18T07:25:49.848Z,20.98
2018-04-18T07:28:52.458Z,21.08
2018-04-18T07:31:54.977Z,20.93
2018-04-18T07:34:57.425Z,21.10
2018-04-18T07:37:59.920Z,21.04
2018-04-18T07:41:02.368Z,21.01
2018-04-18T07:44:04.850Z,20.25
2018-04-18T07:47:07.311Z,20.27
2018-04-18T07:50:09.935Z,20.86
2018-04-18T07:53:12.556Z,20.63
2018-04-18T07:56:15.107Z,20.63
2018-04-18T07:59:17.598Z,20.27
2018-04-18T08:02:20.059Z,20.30
2018-04-18T08:05:22.580Z,20.45
2018-04-18T08:08:25.054Z,20.42
2018-04-18T08:11:27.558Z,20.48
2018-04-18T08:14:30.089Z,20.70
2018-04-18T08:17:32.697Z,20.43
2018-04-18T08:20:35.175Z,20.36
2018-04-18T08:23:37.662Z,20.51
2018-04-18T08:26:40.124Z,20.59
2018-04-18T08:29:42.634Z,20.48
2018-04-18T08:32:45.194Z,20.57
2018-04-18T08:35:47.785Z,20.53
2018-04-18T08:38:50.353Z,20.54
2018-04-18T08:41:52.817Z,20.59
2018-04-18T08:44:55.399Z,20.54
2018-04-18T08:47:57.868Z,20.53
2018-04-18T08:51:00.392Z,20.92
2018-04-18T08:54:02.858Z,20.98
2018-04-18T08:57:05.448Z,21.03
2018-04-18T09:00:08.005Z,20.73
2018-04-18T09:03:10.498Z,20.92
2018-04-18T09:06:12.947Z,20.96
2018-04-18T09:09:15.452Z,20.86
2018-04-18T09:12:17.966Z,20.70
2018-04-18T09:15:20.475Z,20.71
2018-04-18T09:18:22.989Z,20.74
2018-04-18T09:21:25.535Z,20.68
2018-04-18T09:24:28.004Z,20.87
2018-04-18T09:27:30.483Z,20.81
2018-04-18T09:30:32.919Z,21.06
2018-04-18T09:33:35.394Z,20.88
2018-04-18T09:36:37.848Z,20.79
2018-04-18T09:39:40.360Z,20.99
2018-04-18T09:42:42.791Z,21.09
2018-04-18T09:45:45.273Z,21.08
2018-04-18T09:48:47.820Z,21.21
2018-04-18T09:51:50.349Z,21.14
2018-04-18T09:54:52.826Z,21.27
2018-04-18T09:57:55.312Z,21.34
2018-04-18T10:00:57.834Z,21.61
2018-04-18T10:04:05.832Z,21.70
2018-04-18T10:07:08.288Z,21.69
2018-04-18T10:10:10.796Z,21.74
2018-04-18T10:13:13.276Z,21.52
2018-04-18T10:16:15.770Z,21.66
2018-04-18T10:19:18.293Z,21.73
2018-04-18T10:22:20.787Z,21.59
2018-04-18T10:25:23.352Z,21.42
2018-04-18T10:28:25.809Z,21.98
2018-04-18T10:31:28.289Z,21.88
2018-04-18T10:34:30.760Z,21.45
2018-04-18T10:37:33.292Z,21.88
2018-04-18T10:40:35.818Z,21.96
2018-04-18T10:43:38.322Z,21.65
2018-04-18T10:46:40.824Z,21.98
2018-04-18T10:49:43.280Z,21.70
2018-04-18T10:52:45.796Z,21.82
2018-04-18T10:55:48.285Z,22.11
2018-04-18T10:58:50.760Z,22.21
2018-04-18T11:01:53.246Z,22.53
2018-04-18T11:04:55.769Z,22.76
2018-04-18T11:07:58.226Z,22.44
2018-04-18T11:11:00.791Z,22.27
2018-04-18T11:14:03.247Z,22.69
2018-04-18T11:17:05.748Z,22.22
2018-04-18T11:20:08.228Z,22.55
2018-04-18T11:23:10.735Z,22.82
2018-04-18T11:26:13.185Z,22.57
2018-04-18T11:29:15.735Z,22.38
2018-04-18T11:32:18.260Z,22.31
2018-04-18T11:35:20.776Z,22.64
2018-04-18T11:38:23.255Z,22.86
2018-04-18T11:41:25.745Z,23.01
2018-04-18T11:44:28.449Z,23.01
2018-04-18T11:47:30.951Z,22.86
2018-04-18T11:50:33.439Z,23.18
2018-04-18T11:53:35.965Z,23.45
2018-04-18T11:56:38.654Z,22.94
2018-04-18T11:59:41.191Z,22.88
2018-04-18T12:02:43.692Z,22.76
2018-04-18T12:05:46.195Z,22.71
2018-04-18T12:08:48.706Z,23.09
2018-04-18T12:11:51.252Z,23.14
2018-04-18T12:14:53.772Z,23.24
2018-04-18T12:17:56.328Z,23.45
2018-04-18T12:20:58.800Z,23.55
2018-04-18T12:24:02.125Z,23.32
2018-04-18T12:27:04.637Z,23.21
2018-04-18T12:30:07.106Z,23.49
2018-04-18T12:33:09.659Z,23.35
2018-04-18T12:36:12.160Z,23.73
2018-04-18T12:39:14.666Z,23.94
2018-04-18T12:42:17.170Z,23.91
2018-04-18T12:45:19.710Z,23.76
2018-04-18T12:48:22.216Z,23.22
2018-04-18T12:51:24.731Z,23.28
2018-04-18T12:54:27.241Z,23.86
2018-04-18T12:57:29.699Z,23.99
2018-04-18T13:00:32.273Z,23.60
2018-04-18T13:03:34.770Z,23.96
2018-04-18T13:06:37.349Z,23.98
2018-04-18T13:09:39.870Z,23.97
2018-04-18T13:12:42.396Z,24.33
2018-04-18T13:15:44.865Z,24.32
2018-04-18T13:18:47.360Z,24.21
2018-04-18T13:21:49.839Z,23.81
2018-04-18T13:24:52.391Z,23.57
2018-04-18T13:27:54.920Z,23.99
2018-04-18T13:30:57.434Z,23.96
2018-04-18T13:33:59.970Z,23.42
2018-04-18T13:37:02.460Z,23.77
2018-04-18T13:40:05.018Z,24.21
2018-04-18T13:43:07.497Z,24.27
2018-04-18T13:46:10.030Z,24.29
2018-04-18T13:49:12.587Z,24.21
2018-04-18T13:52:15.142Z,24.28
2018-04-18T13:55:17.641Z,24.18
2018-04-18T13:58:20.168Z,24.57
2018-04-18T14:01:22.681Z,24.51
2018-04-18T14:04:25.146Z,24.62
2018-04-18T14:07:27.685Z,24.70
2018-04-18T14:10:30.195Z,24.60
2018-04-18T14:13:32.709Z,24.86
2018-04-18T14:16:35.203Z,24.87
2018-04-18T14:19:37.721Z,24.83
2018-04-18T14:22:40.285Z,25.04
2018-04-18T14:25:42.818Z,24.95
2018-04-18T14:28:45.330Z,25.23
2018-04-18T14:31:47.836Z,25.33
2018-04-18T14:34:50.332Z,25.03
2018-04-18T14:37:52.917Z,24.76
2018-04-18T14:40:55.403Z,24.60
2018-04-18T14:43:57.863Z,24.62
2018-04-18T14:47:00.381Z,24.39
2018-04-18T14:50:02.925Z,24.21
2018-04-18T14:53:05.502Z,24.64
2018-04-18T14:56:07.997Z,24.77
2018-04-18T14:59:10.565Z,24.63
2018-04-18T15:02:13.043Z,24.80
2018-04-18T15:05:15.527Z,24.85
2018-04-18T15:08:18.058Z,25.04
2018-04-18T15:11:20.531Z,25.06
2018-04-18T15:14:23.129Z,24.95
2018-04-18T15:17:25.627Z,25.24
2018-04-18T15:20:28.089Z,24.98
2018-04-18T15:23:30.598Z,25.07
2018-04-18T15:26:33.151Z,25.33
2018-04-18T15:29:35.646Z,24.93
2018-04-18T15:32:38.168Z,24.41
2018-04-18T15:35:40.682Z,24.71
2018-04-18T15:38:43.289Z,24.50
2018-04-18T15:41:45.874Z,24.68
2018-04-18T15:44:53.017Z,24.87
2018-04-18T15:47:55.544Z,24.90
2018-04-18T15:50:58.065Z,24.83
2018-04-18T15:54:00.539Z,24.49
2018-04-18T15:57:03.105Z,24.43
2018-04-18T16:00:05.621Z,24.44
2018-04-18T16:03:08.118Z,24.29
2018-04-18T16:06:10.673Z,24.34
2018-04-18T16:09:13.161Z,24.32
2018-04-18T16:12:15.699Z,24.29
2018-04-18T16:15:18.238Z,24.19
2018-04-18T16:18:20.779Z,24.27
2018-04-18T16:21:23.305Z,24.15
2018-04-18T16:24:25.828Z,24.26
2018-04-18T16:27:28.358Z,23.80
2018-04-18T16:30:41.730Z,23.96
2018-04-18T16:33:44.227Z,23.94
2018-04-18T16:36:46.715Z,23.66
2018-04-18T16:39:49.541Z,23.79
2018-04-18T16:42:52.028Z,23.80
2018-04-18T16:45:54.549Z,23.64
2018-04-18T16:48:57.047Z,23.55
2018-04-18T16:51:59.595Z,23.62
2018-04-18T16:55:02.240Z,23.24
2018-04-18T16:58:04.766Z,23.22
2018-04-18T17:01:07.365Z,23.07
2018-04-18T17:04:09.821Z,22.85
2018-04-18T17:07:12.344Z,22.83
2018-04-18T17:10:14.896Z,22.69
2018-04-18T17:13:17.559Z,22.54
2018-04-18T17:16:20.076Z,22.31
2018-04-18T17:19:22.574Z,22.20
2018-04-18T17:22:25.099Z,22.14
2018-04-18T17:25:27.589Z,22.07
2018-04-18T17:28:30.097Z,21.95
2018-04-18T17:31:32.586Z,21.91
2018-04-18T17:34:35.185Z,21.94
2018-04-18T17:37:37.639Z,21.97
2018-04-18T17:40:40.220Z,21.85
2018-04-18T17:43:42.715Z,21.87
2018-04-18T17:46:45.248Z,21.95
2018-04-18T17:49:47.769Z,22.02
2018-04-18T17:52:50.287Z,22.07
2018-04-18T17:55:52.878Z,21.91
2018-04-18T17:58:55.363Z,21.74
2018-04-18T18:01:57.939Z,21.50
2018-04-18T18:05:00.389Z,21.32
2018-04-18T18:08:02.903Z,21.02
2018-04-18T18:11:05.389Z,20.65
2018-04-18T18:14:07.950Z,20.53
2018-04-18T18:17:10.445Z,20.45
2018-04-18T18:20:12.972Z,20.30
2018-04-18T18:23:17.090Z,20.20
2018-04-18T18:26:19.637Z,19.99
2018-04-18T18:29:22.162Z,19.84
2018-04-18T18:32:25.013Z,19.68
2018-04-18T18:35:27.558Z,19.69
2018-04-18T18:38:30.049Z,19.59
2018-04-18T18:41:32.750Z,19.46
2018-04-18T18:44:35.284Z,19.42
2018-04-18T18:47:37.802Z,19.30
2018-04-18T18:50:40.285Z,19.22
2018-04-18T18:53:42.786Z,19.16
2018-04-18T18:56:45.365Z,19.11
2018-04-18T18:59:47.900Z,19.02
2018-04-18T19:02:50.497Z,18.99
2018-04-18T19:05:53.040Z,18.92
2018-04-18T19:08:55.535Z,18.93
2018-04-18T19:11:58.096Z,18.85
2018-04-18T19:15:00.663Z,18.78
2018-04-18T19:18:03.252Z,18.70
2018-04-18T19:21:05.783Z,18.56
2018-04-18T19:24:08.252Z,18.57
2018-04-18T19:27:10.896Z,18.55
2018-04-18T19:30:13.385Z,18.41
2018-04-18T19:33:16.017Z,18.49
2018-04-18T19:36:19.423Z,18.38
2018-04-18T19:39:22.025Z,18.26
2018-04-18T19:42:24.577Z,18.23
2018-04-18T19:45:27.100Z,18.19
2018-04-18T19:48:29.682Z,18.25
2018-04-18T19:51:32.220Z,18.21
2018-04-18T19:54:34.746Z,18.13
2018-04-18T19:57:37.276Z,18.10
2018-04-18T20:00:39.800Z,17.92
2018-04-18T20:03:42.467Z,17.84
2018-04-18T20:06:45.152Z,17.77
2018-04-18T20:09:47.684Z,17.66
2018-04-18T20:12:50.260Z,17.63
2018-04-18T20:15:52.792Z,17.59
2018-04-18T20:18:55.324Z,17.61
2018-04-18T20:21:57.958Z,17.64
2018-04-18T20:25:00.508Z,17.93
2018-04-18T20:28:03.081Z,17.95
2018-04-18T20:31:05.656Z,17.97
2018-04-18T20:34:08.141Z,18.18
2018-04-18T20:37:10.722Z,18.09
2018-04-18T20:40:13.320Z,18.10
2018-04-18T20:43:15.828Z,18.21
2018-04-18T20:46:18.385Z,18.32
2018-04-18T20:49:20.872Z,18.32
2018-04-18T20:52:23.405Z,18.17
2018-04-18T20:55:25.971Z,18.23
2018-04-18T20:58:28.460Z,18.23
2018-04-18T21:01:30.976Z,17.99
2018-04-18T21:04:33.523Z,17.93
2018-04-18T21:07:36.046Z,17.83
2018-04-18T21:10:38.572Z,17.74
2018-04-18T21:13:41.140Z,17.78
2018-04-18T21:16:43.651Z,17.67
2018-04-18T21:19:46.201Z,17.50
2018-04-18T21:22:48.791Z,17.36
2018-04-18T21:25:51.326Z,17.21
2018-04-18T21:28:53.778Z,16.99
2018-04-18T21:31:56.315Z,16.80
2018-04-18T21:34:58.851Z,16.66
2018-04-18T21:38:01.369Z,16.59
2018-04-18T21:41:03.837Z,16.59
2018-04-18T21:44:06.371Z,16.45
2018-04-18T21:47:08.890Z,16.47
2018-04-18T21:50:11.324Z,16.28
2018-04-18T21:53:14.123Z,16.08
2018-04-18T21:56:16.611Z,15.96
2018-04-18T21:59:19.155Z,15.86
2018-04-18T22:02:21.697Z,15.92
2018-04-18T22:05:24.161Z,15.85
2018-04-18T22:08:26.682Z,15.78
2018-04-18T22:11:29.175Z,15.77
2018-04-18T22:14:31.682Z,15.87
2018-04-18T22:17:34.168Z,16.02
2018-04-18T22:20:36.715Z,16.07
2018-04-18T22:23:39.185Z,16.35
2018-04-18T22:26:41.676Z,16.30
2018-04-18T22:29:44.249Z,16.56
2018-04-18T22:32:46.762Z,16.49
2018-04-18T22:35:49.276Z,16.56
2018-04-18T22:38:51.722Z,16.61
2018-04-18T22:41:54.190Z,16.66
2018-04-18T22:44:56.661Z,16.82
2018-04-18T22:47:59.230Z,16.96
2018-04-18T22:51:01.740Z,16.92
2018-04-18T22:54:04.176Z,16.81
2018-04-18T22:57:06.661Z,16.79
2018-04-18T23:00:09.118Z,16.71
2018-04-18T23:03:11.639Z,16.74
2018-04-18T23:06:14.183Z,16.64
2018-04-18T23:09:16.796Z,16.62
2018-04-18T23:12:19.347Z,16.49
2018-04-18T23:15:21.852Z,16.49
2018-04-18T23:18:24.329Z,16.51
2018-04-18T23:21:26.891Z,16.67
2018-04-18T23:24:29.353Z,16.74
2018-04-18T23:27:31.850Z,16.78
2018-04-18T23:30:34.418Z,16.72
2018-04-18T23:33:36.914Z,16.52
2018-04-18T23:36:39.394Z,16.37
2018-04-18T23:39:41.841Z,16.45
2018-04-18T23:42:44.372Z,16.64
2018-04-18T23:45:46.811Z,16.67
2018-04-18T23:48:49.276Z,16.55
2018-04-18T23:51:51.772Z,16.74
2018-04-18T23:54:54.279Z,17.09
2018-04-18T23:57:56.802Z,16.98
